Time;durP1;ratioP1;P1;durP2;ratioP2;P2;SDS_P1;SDS_P2;PMS_P1;PMS_P2;Temp;Humidity;BMP_temperature;BMP_pressure;BME280_temperature;BME280_humidity;BME280_pressure;Samples;Min_cycle;Max_cycle;Signal;HPM_P1;HPM_P2
2021/06/11 00:00:35;;;;;;;11.57;10.47;;;18.70;99.80;;;;;;6161977;23;20425;-88
2021/06/11 00:03:02;;;;;;;12.37;10.80;;;18.70;99.80;;;;;;6191542;23;20436;-88
2021/06/11 00:05:30;;;;;;;13.00;11.50;;;18.70;99.80;;;;;;6180739;23;20442;-88
2021/06/11 00:07:57;;;;;;;11.10;9.60;;;18.70;99.80;;;;;;6203108;23;20436;-88
2021/06/11 00:10:25;;;;;;;13.30;11.37;;;18.70;99.80;;;;;;6164122;23;20458;-88
2021/06/11 00:12:53;;;;;;;12.43;10.80;;;18.70;99.80;;;;;;6182355;23;20436;-88
2021/06/11 00:15:20;;;;;;;14.47;11.30;;;18.60;99.80;;;;;;6193986;23;20774;-88
2021/06/11 00:17:49;;;;;;;13.53;10.93;;;18.60;99.80;;;;;;6172843;23;20966;-88
2021/06/11 00:20:18;;;;;;;17.23;11.20;;;18.50;99.80;;;;;;6174173;23;20946;-88
2021/06/11 00:22:46;;;;;;;15.80;10.87;;;18.50;99.80;;;;;;6201268;23;20527;-88
2021/06/11 00:25:16;;;;;;;13.77;12.27;;;18.50;99.80;;;;;;6201954;23;20439;-87
2021/06/11 00:27:44;;;;;;;13.40;12.00;;;18.40;99.80;;;;;;6203468;23;20921;-87
2021/06/11 00:30:13;;;;;;;12.07;10.50;;;18.30;99.80;;;;;;6198364;23;20435;-87
2021/06/11 00:32:41;;;;;;;12.23;10.37;;;18.30;99.80;;;;;;6196320;23;20436;-87
2021/06/11 00:35:11;;;;;;;14.73;11.30;;;18.20;99.80;;;;;;6192252;23;20763;-87
2021/06/11 00:37:40;;;;;;;11.90;10.70;;;18.20;99.80;;;;;;6203011;23;20463;-87
2021/06/11 00:40:09;;;;;;;13.57;12.23;;;18.20;99.80;;;;;;6199087;23;20431;-87
2021/06/11 00:42:37;;;;;;;19.50;13.00;;;18.10;99.80;;;;;;6221207;22;20460;-87
2021/06/11 00:45:08;;;;;;;14.93;12.73;;;18.10;99.80;;;;;;6196074;23;20443;-87
2021/06/11 00:47:35;;;;;;;20.53;13.97;;;18.10;99.80;;;;;;6188154;23;20437;-87
2021/06/11 00:50:04;;;;;;;14.87;13.20;;;18.00;99.80;;;;;;6195187;23;20952;-87
2021/06/11 00:52:34;;;;;;;15.87;13.07;;;18.00;99.80;;;;;;6235076;22;20915;-87
2021/06/11 00:55:02;;;;;;;16.80;13.47;;;18.00;99.80;;;;;;6232703;23;20435;-88
2021/06/11 00:57:30;;;;;;;19.60;13.90;;;17.90;99.80;;;;;;6232960;23;20466;-87
2021/06/11 00:59:57;;;;;;;18.47;12.97;;;17.80;99.80;;;;;;6233337;23;20442;-87
2021/06/11 01:02:25;;;;;;;17.20;13.60;;;17.80;99.80;;;;;;6226947;22;20447;-87
2021/06/11 01:04:52;;;;;;;16.73;12.13;;;17.80;99.80;;;;;;6228617;23;20462;-87
2021/06/11 01:07:22;;;;;;;16.57;13.10;;;17.80;99.80;;;;;;6236027;23;20743;-87
2021/06/11 01:09:52;;;;;;;18.47;14.33;;;17.80;99.80;;;;;;6232067;23;20430;-87
2021/06/11 01:12:20;;;;;;;15.60;12.00;;;17.70;99.80;;;;;;6193597;23;20440;-87
2021/06/11 01:14:47;;;;;;;17.10;12.27;;;17.70;99.80;;;;;;6216696;23;20443;-87
2021/06/11 01:17:15;;;;;;;18.40;12.53;;;17.70;99.80;;;;;;6229282;23;20437;-87
2021/06/11 01:19:46;;;;;;;16.70;12.53;;;17.70;99.80;;;;;;6227007;23;20439;-88
2021/06/11 01:22:17;;;;;;;15.80;12.60;;;17.60;99.80;;;;;;6217988;22;20439;-87
2021/06/11 01:24:59;;;;;;;20.43;14.93;;;17.50;99.80;;;;;;6227407;23;20435;-87
2021/06/11 01:27:30;;;;;;;17.03;13.63;;;17.50;99.80;;;;;;6173951;23;20432;-87
2021/06/11 01:30:04;;;;;;;14.27;12.77;;;17.40;99.80;;;;;;6202494;23;20943;-88
2021/06/11 01:32:35;;;;;;;13.10;11.60;;;17.40;99.80;;;;;;6226841;22;20441;-88
2021/06/11 01:35:07;;;;;;;16.33;13.20;;;17.30;99.80;;;;;;6222128;23;20439;-87
2021/06/11 01:37:36;;;;;;;18.13;13.70;;;17.30;99.80;;;;;;6234249;23;20919;-87
2021/06/11 01:40:07;;;;;;;16.23;12.90;;;17.20;99.80;;;;;;6232925;23;20449;-87
2021/06/11 01:42:38;;;;;;;14.87;11.93;;;17.20;99.80;;;;;;6229557;22;20441;-88
2021/06/11 01:45:09;;;;;;;17.10;12.67;;;17.20;99.80;;;;;;6227051;23;20432;-87
2021/06/11 01:47:42;;;;;;;16.60;12.07;;;17.10;99.80;;;;;;6214394;23;20444;-87
2021/06/11 01:50:12;;;;;;;15.60;14.00;;;17.10;99.80;;;;;;6226889;23;20982;-87
2021/06/11 01:52:41;;;;;;;17.50;13.23;;;17.10;99.80;;;;;;6229066;22;20453;-87
2021/06/11 01:55:10;;;;;;;13.97;12.40;;;17.10;99.80;;;;;;6197391;23;20462;-87
2021/06/11 01:57:40;;;;;;;14.33;11.77;;;17.10;99.80;;;;;;6215335;23;20422;-87
2021/06/11 02:00:08;;;;;;;17.07;12.27;;;17.20;99.80;;;;;;6185072;23;20443;-87
2021/06/11 02:02:37;;;;;;;13.03;10.90;;;17.20;99.80;;;;;;6230746;23;20419;-87
2021/06/11 02:05:06;;;;;;;18.07;13.10;;;17.20;99.80;;;;;;6240834;23;20434;-87
2021/06/11 02:07:35;;;;;;;16.60;12.70;;;17.20;99.80;;;;;;6240881;23;20437;-87
2021/06/11 02:10:03;;;;;;;12.40;11.10;;;17.20;99.80;;;;;;6240765;23;20411;-87
2021/06/11 02:12:31;;;;;;;15.90;13.07;;;17.10;99.80;;;;;;6240904;22;20412;-87
2021/06/11 02:15:02;;;;;;;16.47;13.00;;;17.10;99.80;;;;;;6241519;23;20388;-87
2021/06/11 02:17:30;;;;;;;15.30;11.67;;;17.10;99.80;;;;;;6240547;23;20384;-87
2021/06/11 02:19:58;;;;;;;13.27;11.47;;;17.10;99.80;;;;;;6212355;23;20892;-87
2021/06/11 02:22:26;;;;;;;20.90;13.17;;;17.10;99.80;;;;;;6193671;23;20773;-87
2021/06/11 02:24:54;;;;;;;16.10;12.53;;;17.00;99.80;;;;;;6233101;23;20427;-87
2021/06/11 02:27:21;;;;;;;14.93;12.37;;;17.00;99.80;;;;;;6219583;23;20450;-87
2021/06/11 02:29:49;;;;;;;14.93;12.77;;;16.90;99.80;;;;;;6220890;23;20435;-87
2021/06/11 02:32:18;;;;;;;16.57;13.40;;;16.90;99.80;;;;;;6225663;22;20438;-88
2021/06/11 02:34:45;;;;;;;17.90;14.10;;;17.00;99.80;;;;;;6219702;23;20931;-87
2021/06/11 02:37:13;;;;;;;18.67;15.30;;;17.00;99.80;;;;;;6221324;23;20435;-87
2021/06/11 02:39:40;;;;;;;20.07;15.80;;;17.00;99.80;;;;;;6224162;23;20435;-88
2021/06/11 02:42:09;;;;;;;22.90;14.53;;;17.00;99.80;;;;;;6225058;22;20439;-87
2021/06/11 02:44:40;;;;;;;17.03;14.10;;;17.00;99.80;;;;;;6231553;23;20456;-87
2021/06/11 02:47:13;;;;;;;17.93;14.37;;;17.00;99.80;;;;;;6223587;23;20435;-87
2021/06/11 02:49:48;;;;;;;15.37;13.67;;;17.00;99.80;;;;;;6232319;23;20431;-87
2021/06/11 02:52:21;;;;;;;15.10;13.03;;;16.90;99.80;;;;;;6234447;22;20426;-87
2021/06/11 02:54:50;;;;;;;15.70;13.27;;;16.90;99.80;;;;;;6235152;23;20434;-87
2021/06/11 02:57:21;;;;;;;16.30;13.70;;;16.80;99.80;;;;;;6231628;23;20442;-88
2021/06/11 02:59:53;;;;;;;23.43;14.77;;;16.80;99.80;;;;;;6187345;23;20439;-87
2021/06/11 03:02:26;;;;;;;17.30;15.20;;;16.80;99.80;;;;;;6211858;22;20477;-87
2021/06/11 03:04:56;;;;;;;18.17;15.23;;;16.70;99.80;;;;;;6232360;23;20777;-88
2021/06/11 03:07:26;;;;;;;18.50;15.40;;;16.70;99.80;;;;;;6226906;23;20443;-87
2021/06/11 03:09:57;;;;;;;18.73;14.87;;;16.70;99.80;;;;;;6231174;23;20435;-87
2021/06/11 03:12:26;;;;;;;16.20;13.90;;;16.60;99.80;;;;;;6217333;22;20530;-87
2021/06/11 03:14:54;;;;;;;18.57;15.60;;;16.40;99.80;;;;;;6228546;23;20468;-87
2021/06/11 03:17:27;;;;;;;23.93;16.97;;;16.30;99.80;;;;;;6215383;23;20472;-87
2021/06/11 03:19:59;;;;;;;20.60;16.10;;;16.30;99.80;;;;;;6222684;23;20510;-87
2021/06/11 03:22:31;;;;;;;25.40;16.30;;;16.20;99.80;;;;;;6236937;22;20446;-87
2021/06/11 03:25:04;;;;;;;25.20;16.37;;;16.20;99.80;;;;;;6235232;23;20442;-87
2021/06/11 03:27:39;;;;;;;19.97;15.90;;;16.20;99.80;;;;;;6234930;23;20444;-87
2021/06/11 03:30:10;;;;;;;23.07;15.97;;;16.20;99.80;;;;;;6232135;23;20437;-87
2021/06/11 03:32:41;;;;;;;23.23;16.27;;;16.10;99.80;;;;;;6225097;22;20793;-87
2021/06/11 03:35:16;;;;;;;21.63;16.17;;;16.10;99.80;;;;;;6228270;23;20950;-87
2021/06/11 03:37:47;;;;;;;26.63;15.77;;;16.10;99.80;;;;;;6234564;23;20439;-87
2021/06/11 03:40:21;;;;;;;20.23;14.97;;;16.10;99.80;;;;;;6226804;23;20935;-87
2021/06/11 03:42:49;;;;;;;18.00;14.10;;;16.20;99.80;;;;;;6219370;22;20978;-87
2021/06/11 03:45:16;;;;;;;18.57;14.93;;;16.20;99.80;;;;;;6231970;23;20444;-87
2021/06/11 03:47:47;;;;;;;19.20;14.23;;;16.20;99.80;;;;;;6229219;23;20453;-87
2021/06/11 03:50:21;;;;;;;17.90;13.97;;;16.20;99.80;;;;;;6225669;23;20435;-87
2021/06/11 03:52:50;;;;;;;24.50;15.60;;;16.30;99.80;;;;;;6236021;22;20506;-87
2021/06/11 03:55:20;;;;;;;21.40;14.97;;;16.30;99.80;;;;;;6236961;23;20437;-87
2021/06/11 03:57:52;;;;;;;17.20;14.20;;;16.30;99.80;;;;;;6232600;23;20433;-87
2021/06/11 04:00:22;;;;;;;15.93;13.37;;;16.30;99.80;;;;;;6212201;23;20447;-87
2021/06/11 04:02:50;;;;;;;19.30;15.10;;;16.30;99.80;;;;;;6190349;22;20444;-87
2021/06/11 04:05:19;;;;;;;18.27;13.53;;;16.30;99.80;;;;;;6218040;23;20454;-86
2021/06/11 04:07:52;;;;;;;19.17;14.53;;;16.30;99.80;;;;;;6238257;23;20446;-89
2021/06/11 04:10:24;;;;;;;19.50;14.83;;;16.30;99.80;;;;;;6231663;23;20568;-88
2021/06/11 04:12:55;;;;;;;22.97;15.70;;;16.40;99.80;;;;;;6231499;22;20755;-88
2021/06/11 04:15:25;;;;;;;19.13;14.93;;;16.50;99.80;;;;;;6225956;23;20450;-88
2021/06/11 04:18:03;;;;;;;18.80;16.00;;;16.60;99.80;;;;;;6225712;23;20431;-88
2021/06/11 04:20:33;;;;;;;17.77;14.60;;;16.60;99.80;;;;;;6215860;23;20431;-88
2021/06/11 04:23:03;;;;;;;19.67;15.60;;;16.60;99.80;;;;;;6230931;22;20440;-88
2021/06/11 04:25:33;;;;;;;21.77;14.20;;;16.60;99.80;;;;;;6238179;23;20449;-89
2021/06/11 04:28:01;;;;;;;18.77;15.00;;;16.70;99.80;;;;;;6233458;23;20818;-87
2021/06/11 04:30:29;;;;;;;22.17;16.53;;;16.70;99.80;;;;;;6236663;23;20434;-88
2021/06/11 04:32:57;;;;;;;19.30;15.23;;;16.80;99.80;;;;;;6234383;22;20447;-89
2021/06/11 04:35:26;;;;;;;23.60;15.87;;;16.80;99.80;;;;;;6233645;23;20435;-88
2021/06/11 04:37:57;;;;;;;20.50;16.73;;;16.80;99.80;;;;;;6238412;23;20431;-89
2021/06/11 04:40:25;;;;;;;18.00;14.80;;;16.90;99.80;;;;;;6233083;23;20427;-86
2021/06/11 04:42:52;;;;;;;21.47;15.33;;;17.00;99.80;;;;;;6222048;22;20507;-86
2021/06/11 04:45:20;;;;;;;18.13;15.40;;;17.10;99.80;;;;;;6228217;23;20780;-85
2021/06/11 04:47:47;;;;;;;19.20;15.07;;;17.10;99.80;;;;;;6229639;23;20480;-85
2021/06/11 04:50:15;;;;;;;20.03;13.90;;;17.20;99.80;;;;;;6215105;23;20440;-85
2021/06/11 04:52:42;;;;;;;19.80;14.67;;;17.30;99.80;;;;;;6226458;22;20452;-81
2021/06/11 04:55:11;;;;;;;19.37;15.50;;;17.30;99.80;;;;;;6207288;23;20428;-80
2021/06/11 04:57:39;;;;;;;17.00;14.87;;;17.40;99.80;;;;;;6206065;23;20435;-81
2021/06/11 05:00:09;;;;;;;16.83;14.30;;;17.40;99.80;;;;;;6184920;23;20785;-81
2021/06/11 05:02:36;;;;;;;20.83;14.53;;;17.60;99.80;;;;;;6211988;22;20445;-81
2021/06/11 05:05:05;;;;;;;18.30;14.47;;;17.70;99.80;;;;;;6226279;23;20437;-81
2021/06/11 05:07:32;;;;;;;21.90;15.33;;;17.80;99.80;;;;;;6234192;23;20762;-81
2021/06/11 05:10:00;;;;;;;18.20;15.23;;;17.90;99.80;;;;;;6235486;23;20438;-81
2021/06/11 05:12:29;;;;;;;17.33;14.17;;;17.90;99.80;;;;;;6235262;22;20794;-80
2021/06/11 05:14:56;;;;;;;20.00;13.77;;;18.00;99.80;;;;;;6228978;23;20435;-81
2021/06/11 05:17:24;;;;;;;13.50;12.03;;;18.00;99.80;;;;;;6222450;23;20439;-81
2021/06/11 05:19:51;;;;;;;14.73;13.13;;;18.10;99.80;;;;;;6226280;23;20509;-81
2021/06/11 05:22:21;;;;;;;14.83;13.20;;;18.10;99.80;;;;;;6235931;22;20439;-81
2021/06/11 05:24:48;;;;;;;16.37;13.40;;;18.20;99.80;;;;;;6216871;23;20431;-82
2021/06/11 05:27:16;;;;;;;15.23;12.93;;;18.30;99.80;;;;;;6228518;23;20932;-82
2021/06/11 05:29:45;;;;;;;13.47;11.53;;;18.40;99.80;;;;;;6226563;23;20951;-82
2021/06/11 05:32:12;;;;;;;16.20;11.90;;;18.40;99.80;;;;;;6221407;22;20450;-81
2021/06/11 05:34:40;;;;;;;17.20;13.10;;;18.50;99.80;;;;;;6230770;23;20440;-82
2021/06/11 05:37:07;;;;;;;15.60;12.50;;;18.60;99.80;;;;;;6237201;23;20435;-81
2021/06/11 05:39:35;;;;;;;13.13;11.83;;;18.60;99.80;;;;;;6234439;23;20439;-81
2021/06/11 05:42:03;;;;;;;14.17;11.80;;;18.70;99.80;;;;;;6234550;22;20977;-81
2021/06/11 05:44:31;;;;;;;12.60;11.30;;;18.80;99.80;;;;;;6236993;23;20441;-81
2021/06/11 05:47:00;;;;;;;16.37;13.60;;;18.80;99.80;;;;;;6190439;23;20451;-81
2021/06/11 05:49:27;;;;;;;20.30;13.60;;;18.90;99.80;;;;;;6214729;23;20439;-81
2021/06/11 05:51:55;;;;;;;15.40;13.80;;;19.00;99.80;;;;;;6191958;23;20446;-84
2021/06/11 05:54:22;;;;;;;16.30;13.43;;;19.00;99.80;;;;;;6227270;23;20450;-85
2021/06/11 05:56:50;;;;;;;14.60;12.80;;;19.10;99.80;;;;;;6228563;23;20435;-85
2021/06/11 05:59:17;;;;;;;16.87;12.70;;;19.20;99.80;;;;;;6216749;23;20961;-84
2021/06/11 06:01:45;;;;;;;13.37;11.97;;;19.30;99.80;;;;;;6154183;23;22416;-85
2021/06/11 06:04:14;;;;;;;14.00;12.50;;;19.40;99.80;;;;;;6194727;23;20471;-85
2021/06/11 06:06:41;;;;;;;13.20;11.80;;;19.50;99.80;;;;;;6209595;23;21054;-84
2021/06/11 06:09:09;;;;;;;14.20;12.37;;;19.60;99.80;;;;;;6236023;23;20947;-85
2021/06/11 06:11:36;;;;;;;13.60;12.20;;;19.60;99.80;;;;;;6235860;22;20447;-85
2021/06/11 06:14:05;;;;;;;16.77;13.70;;;19.70;99.80;;;;;;6232675;23;20431;-85
2021/06/11 06:16:32;;;;;;;15.80;13.33;;;19.80;99.80;;;;;;6230363;23;20435;-85
2021/06/11 06:19:00;;;;;;;14.33;12.83;;;;;;;;;;6227568;23;20436;-85
2021/06/11 06:21:31;;;;;;;19.33;14.33;;;19.90;99.80;;;;;;6227631;22;20444;-85
2021/06/11 06:23:59;;;;;;;17.17;13.30;;;20.00;99.80;;;;;;6232246;23;20431;-85
2021/06/11 06:26:27;;;;;;;17.23;14.10;;;20.00;99.80;;;;;;6226300;23;20436;-85
2021/06/11 06:28:55;;;;;;;16.10;14.07;;;20.10;99.80;;;;;;6216429;23;20438;-85
2021/06/11 06:31:23;;;;;;;15.60;13.43;;;20.20;99.80;;;;;;6217473;22;20458;-85
2021/06/11 06:33:51;;;;;;;14.80;13.07;;;20.30;99.80;;;;;;6231155;23;20435;-85
2021/06/11 06:36:18;;;;;;;14.93;13.20;;;20.40;99.80;;;;;;6218173;23;20439;-85
2021/06/11 06:38:47;;;;;;;17.70;15.43;;;20.40;99.80;;;;;;6225887;23;20444;-85
2021/06/11 06:41:17;;;;;;;21.20;13.70;;;20.50;99.80;;;;;;6226738;22;20535;-84
2021/06/11 06:43:44;;;;;;;15.30;13.70;;;20.60;99.80;;;;;;6214961;23;20447;-86
2021/06/11 06:46:15;;;;;;;16.00;14.07;;;20.70;99.80;;;;;;6225103;23;20455;-84
2021/06/11 06:48:43;;;;;;;25.93;14.23;;;20.70;99.80;;;;;;6209954;23;20444;-82
2021/06/11 06:51:11;;;;;;;19.37;14.87;;;20.80;99.80;;;;;;6230608;22;20466;-82
2021/06/11 06:53:38;;;;;;;15.60;13.60;;;20.90;99.80;;;;;;6236229;23;20445;-86
2021/06/11 06:56:07;;;;;;;16.77;14.87;;;20.90;99.80;;;;;;6231161;23;20425;-86
2021/06/11 06:58:36;;;;;;;15.37;13.43;;;21.10;99.80;;;;;;6221439;23;20434;-86
2021/06/11 07:01:03;;;;;;;19.40;15.53;;;21.20;99.80;;;;;;6142366;23;20424;-86
2021/06/11 07:03:31;;;;;;;19.20;14.60;;;21.30;99.80;;;;;;6200709;22;20435;-85
2021/06/11 07:05:59;;;;;;;15.80;14.17;;;21.30;99.80;;;;;;6228651;23;20446;-86
2021/06/11 07:08:30;;;;;;;16.00;13.97;;;21.40;99.80;;;;;;6209885;23;20647;-86
2021/06/11 07:10:58;;;;;;;15.70;13.17;;;21.50;99.80;;;;;;6175896;22;20435;-86
2021/06/11 07:13:31;;;;;;;14.73;13.20;;;21.50;99.80;;;;;;6197271;22;20456;-86
2021/06/11 07:15:59;;;;;;;15.83;13.67;;;21.70;99.80;;;;;;6223463;23;20502;-86
2021/06/11 07:18:27;;;;;;;14.93;13.27;;;21.70;99.80;;;;;;6222249;23;20436;-85
2021/06/11 07:20:54;;;;;;;12.97;11.47;;;21.80;99.80;;;;;;6233300;22;20446;-86
2021/06/11 07:23:22;;;;;;;14.53;13.03;;;21.80;99.80;;;;;;6232621;23;20439;-86
2021/06/11 07:25:49;;;;;;;14.57;12.60;;;21.90;99.80;;;;;;6235440;23;20430;-86
2021/06/11 07:28:17;;;;;;;20.50;14.27;;;22.00;99.80;;;;;;6233977;23;20438;-86
2021/06/11 07:30:46;;;;;;;14.83;12.80;;;22.10;99.80;;;;;;6212427;23;20442;-86
2021/06/11 07:33:13;;;;;;;16.30;11.70;;;22.10;99.80;;;;;;6183772;22;20438;-86
2021/06/11 07:35:41;;;;;;;13.30;12.00;;;;;;;;;;6194818;22;20439;-86
2021/06/11 07:38:09;;;;;;;11.67;10.43;;;;;;;;;;6227724;23;20431;-86
2021/06/11 07:40:56;;;;;;;12.57;11.30;;;;;;;;;;6230500;22;20466;-86
2021/06/11 07:43:24;;;;;;;15.23;11.13;;;22.50;99.80;;;;;;6221456;23;20431;-86
2021/06/11 07:45:54;;;;;;;12.07;10.87;;;22.60;99.80;;;;;;6223612;23;20435;-86
2021/06/11 07:48:22;;;;;;;13.70;12.27;;;22.70;99.80;;;;;;6200017;23;20988;-85
2021/06/11 07:50:50;;;;;;;11.07;10.07;;;22.80;99.80;;;;;;6190608;22;20439;-86
2021/06/11 07:53:18;;;;;;;10.83;9.73;;;;;;;;;;6235544;22;20435;-86
2021/06/11 07:55:45;;;;;;;12.00;9.97;;;22.90;99.80;;;;;;6238103;23;20441;-87
2021/06/11 07:58:13;;;;;;;9.70;8.67;;;23.00;99.80;;;;;;6231389;23;20462;-85
2021/06/11 08:00:40;;;;;;;9.80;8.83;;;23.00;99.80;;;;;;6230236;23;20454;-86
2021/06/11 08:03:10;;;;;;;9.53;8.57;;;23.10;99.80;;;;;;6217628;23;20435;-86
2021/06/11 08:05:39;;;;;;;9.83;8.93;;;23.20;99.80;;;;;;6192467;23;20433;-91
2021/06/11 08:08:07;;;;;;;9.53;8.63;;;23.30;99.80;;;;;;6231924;23;20435;-91
2021/06/11 08:10:36;;;;;;;10.97;9.10;;;23.40;99.80;;;;;;6238543;23;20438;-92
2021/06/11 08:13:04;;;;;;;11.20;9.33;;;23.50;99.80;;;;;;6213830;22;20431;-91
2021/06/11 08:15:32;;;;;;;10.60;9.50;;;23.50;99.80;;;;;;6214413;23;20459;-90
2021/06/11 08:18:00;;;;;;;11.90;9.67;;;23.60;99.80;;;;;;6205243;23;20431;-91
2021/06/11 08:20:30;;;;;;;11.90;10.00;;;23.70;99.80;;;;;;6207005;23;20725;-91
2021/06/11 08:22:58;;;;;;;10.23;9.30;;;23.90;99.80;;;;;;6205903;22;20527;-90
2021/06/11 08:25:26;;;;;;;11.70;9.83;;;23.90;99.80;;;;;;6177331;23;20442;-91
2021/06/11 08:28:01;;;;;;;13.40;12.00;;;23.90;99.60;;;;;;6211377;23;20462;-92
2021/06/11 08:30:29;;;;;;;12.27;11.10;;;24.00;99.80;;;;;;6211360;23;20423;-91
2021/06/11 08:32:58;;;;;;;12.80;10.70;;;24.10;99.80;;;;;;6174570;23;20813;-91
2021/06/11 08:35:27;;;;;;;14.77;10.10;;;24.10;99.50;;;;;;6186476;23;20494;-91
2021/06/11 08:37:56;;;;;;;10.40;9.43;;;24.20;99.80;;;;;;6207026;23;20818;-90
2021/06/11 08:40:31;;;;;;;10.77;9.50;;;24.40;99.80;;;;;;6211483;23;20432;-91
2021/06/11 08:42:59;;;;;;;10.40;9.37;;;24.50;98.20;;;;;;6228044;22;20434;-92
2021/06/11 08:45:27;;;;;;;9.10;8.30;;;24.60;98.50;;;;;;6190081;22;20431;-92
2021/06/11 08:47:55;;;;;;;12.37;8.10;;;24.70;96.50;;;;;;6182898;23;20443;-91
2021/06/11 08:50:26;;;;;;;9.53;8.63;;;24.80;95.80;;;;;;6182026;23;20420;-91
2021/06/11 08:52:56;;;;;;;8.57;7.77;;;24.70;96.20;;;;;;6188771;23;20486;-90
2021/06/11 08:55:24;;;;;;;9.10;8.27;;;24.80;94.30;;;;;;6183033;23;20443;-88
2021/06/11 08:57:52;;;;;;;9.87;9.00;;;24.90;95.20;;;;;;6172491;23;20432;-88
2021/06/11 09:00:20;;;;;;;10.17;9.17;;;25.00;97.70;;;;;;6175248;23;20766;-88
2021/06/11 09:03:18;;;;;;;10.63;9.53;;;25.20;97.40;;;;;;6177803;23;20447;-87
2021/06/11 09:05:47;;;;;;;14.03;9.67;;;25.30;97.10;;;;;;6197336;23;20932;-87
2021/06/11 09:08:19;;;;;;;14.33;10.77;;;25.30;94.70;;;;;;6232073;23;20436;-88
2021/06/11 09:10:48;;;;;;;11.43;9.37;;;25.40;96.10;;;;;;6235440;22;20398;-87
2021/06/11 09:13:23;;;;;;;9.90;8.50;;;25.40;95.00;;;;;;6234826;23;20435;-88
2021/06/11 09:15:51;;;;;;;9.30;8.40;;;25.50;92.50;;;;;;6192945;23;20437;-87
2021/06/11 09:18:21;;;;;;;13.70;8.50;;;25.70;92.60;;;;;;6182020;22;20442;-88
2021/06/11 09:20:50;;;;;;;8.83;8.03;;;25.80;92.50;;;;;;6205425;22;20439;-87
2021/06/11 09:23:19;;;;;;;8.27;7.33;;;25.70;92.10;;;;;;6231245;23;20439;-87
2021/06/11 09:25:49;;;;;;;7.90;7.20;;;25.90;88.90;;;;;;6203933;23;20450;-87
2021/06/11 09:28:18;;;;;;;8.50;7.70;;;25.90;87.50;;;;;;6181165;23;20434;-91
2021/06/11 09:30:54;;;;;;;8.47;7.67;;;26.00;86.90;;;;;;6179416;23;20426;-91
2021/06/11 09:33:23;;;;;;;8.03;7.33;;;26.10;86.50;;;;;;6199907;22;20544;-85
2021/06/11 09:35:54;;;;;;;7.70;6.90;;;26.20;85.70;;;;;;6191669;22;20439;-85
2021/06/11 09:38:25;;;;;;;12.13;8.63;;;26.20;87.60;;;;;;6232220;23;20427;-85
2021/06/11 09:41:07;;;;;;;9.07;8.17;;;26.30;90.00;;;;;;6235212;22;20970;-90
2021/06/11 09:43:35;;;;;;;8.03;7.33;;;26.40;89.30;;;;;;6235715;23;20774;-90
2021/06/11 09:46:07;;;;;;;9.07;8.27;;;26.60;87.20;;;;;;6222862;23;20439;-89
2021/06/11 09:48:40;;;;;;;8.97;8.17;;;26.70;86.70;;;;;;6182201;23;21211;-89
2021/06/11 09:51:14;;;;;;;10.03;9.03;;;26.90;86.80;;;;;;6213271;22;20506;-89
2021/06/11 09:53:44;;;;;;;9.83;8.60;;;26.90;87.40;;;;;;6234365;23;20941;-90
2021/06/11 09:56:19;;;;;;;13.13;9.90;;;27.00;86.60;;;;;;6212720;23;20547;-89
2021/06/11 09:58:47;;;;;;;9.57;8.67;;;27.10;85.70;;;;;;6176323;22;20427;-91
2021/06/11 10:01:15;;;;;;;10.30;9.30;;;27.20;85.10;;;;;;6184257;22;20963;-90
2021/06/11 10:03:45;;;;;;;12.10;9.23;;;27.30;82.60;;;;;;6207476;22;20501;-89
2021/06/11 10:06:15;;;;;;;14.07;9.27;;;27.20;83.30;;;;;;6200998;23;20435;-89
2021/06/11 10:08:45;;;;;;;10.60;9.50;;;27.20;86.10;;;;;;6209469;23;20439;-88
2021/06/11 10:11:15;;;;;;;11.40;10.20;;;27.30;84.00;;;;;;6197327;23;20432;-89
2021/06/11 10:13:43;;;;;;;10.73;9.70;;;27.40;84.20;;;;;;6163937;23;20643;-88
2021/06/11 10:16:12;;;;;;;10.67;9.57;;;27.50;83.10;;;;;;6191470;23;20436;-89
2021/06/11 10:18:41;;;;;;;11.50;10.30;;;27.60;84.10;;;;;;6187960;22;20435;-91
2021/06/11 10:21:10;;;;;;;12.20;9.77;;;27.70;85.70;;;;;;6196195;22;21350;-89
2021/06/11 10:23:38;;;;;;;11.10;10.00;;;27.80;83.50;;;;;;6232617;22;20833;-89
2021/06/11 10:26:09;;;;;;;11.50;9.27;;;27.90;87.10;;;;;;6228218;23;20441;-88
2021/06/11 10:28:39;;;;;;;10.07;9.03;;;28.10;85.80;;;;;;6210114;23;20794;-89
2021/06/11 10:31:08;;;;;;;10.67;9.67;;;28.20;85.00;;;;;;6142008;23;20511;-88
2021/06/11 10:33:59;;;;;;;10.20;9.30;;;28.40;84.80;;;;;;6187899;22;20435;-89
2021/06/11 10:36:40;;;;;;;9.33;8.43;;;28.40;79.90;;;;;;6200684;22;20442;-89
2021/06/11 10:39:34;;;;;;;11.30;10.10;;;28.40;81.30;;;;;;6187677;23;20440;-89
2021/06/11 10:42:08;;;;;;;10.10;9.10;;;28.50;80.70;;;;;;6187862;22;20861;-89
2021/06/11 10:44:41;;;;;;;9.67;8.80;;;28.70;83.50;;;;;;6204598;22;21108;-88
2021/06/11 10:47:33;;;;;;;10.43;9.43;;;28.90;82.80;;;;;;6186765;22;20857;-88
2021/06/11 10:50:13;;;;;;;10.93;9.43;;;29.00;82.60;;;;;;6196687;22;20433;-89
2021/06/11 10:52:46;;;;;;;11.20;9.33;;;29.20;80.20;;;;;;6220940;22;20777;-89
2021/06/11 10:55:46;;;;;;;11.03;9.83;;;29.20;77.60;;;;;;6205556;22;20521;-89
2021/06/11 10:58:23;;;;;;;10.67;9.67;;;29.30;78.30;;;;;;6204923;23;20436;-88
2021/06/11 11:00:50;;;;;;;10.63;9.63;;;;;;;;;;6159769;23;20495;-89
2021/06/11 11:03:39;;;;;;;9.60;8.70;;;29.40;78.10;;;;;;6176852;23;20502;-89
2021/06/11 11:06:29;;;;;;;12.10;9.90;;;29.70;79.30;;;;;;6176516;23;20436;-89
2021/06/11 11:08:58;;;;;;;9.23;8.33;;;29.90;79.20;;;;;;6222986;22;20900;-89
2021/06/11 11:11:28;;;;;;;10.40;9.40;;;30.10;80.30;;;;;;6163777;22;20459;-89
2021/06/11 11:13:58;;;;;;;10.63;9.70;;;30.30;75.30;;;;;;6178568;23;20447;-89
2021/06/11 11:16:27;;;;;;;10.27;8.33;;;30.30;76.20;;;;;;6178891;23;20522;-89
2021/06/11 11:18:55;;;;;;;11.30;7.83;;;30.20;73.90;;;;;;6163078;23;20432;-89
2021/06/11 11:21:28;;;;;;;9.37;8.57;;;30.40;76.80;;;;;;6221335;23;20513;-89
2021/06/11 11:23:58;;;;;;;12.73;9.57;;;30.50;74.90;;;;;;6203690;23;20432;-88
2021/06/11 11:26:41;;;;;;;9.00;8.20;;;30.30;72.30;;;;;;6207741;23;20463;-90
2021/06/11 11:29:11;;;;;;;10.10;8.47;;;30.20;71.50;;;;;;6197912;23;20959;-89
2021/06/11 11:31:40;;;;;;;12.47;7.67;;;30.40;73.90;;;;;;6196399;23;20450;-89
2021/06/11 11:34:08;;;;;;;10.00;8.30;;;30.70;74.50;;;;;;6168337;23;20506;-90
2021/06/11 11:36:36;;;;;;;8.03;7.33;;;31.20;73.80;;;;;;6215185;23;20439;-89
2021/06/11 11:39:06;;;;;;;9.13;8.33;;;31.70;68.90;;;;;;6204950;23;20789;-89
2021/06/11 11:41:34;;;;;;;8.83;7.87;;;;;;;;;;6194304;23;20436;-89
2021/06/11 11:44:03;;;;;;;9.50;8.70;;;31.20;71.60;;;;;;6190651;23;20445;-89
2021/06/11 11:46:51;;;;;;;12.67;9.17;;;30.60;71.00;;;;;;6194643;23;20439;-90
2021/06/11 11:49:19;;;;;;;7.93;7.33;;;29.90;73.40;;;;;;6192379;23;20439;-90
2021/06/11 11:51:48;;;;;;;10.90;8.53;;;29.50;74.60;;;;;;6190730;23;20964;-90
2021/06/11 11:54:16;;;;;;;9.60;8.50;;;29.50;75.40;;;;;;6183569;23;20438;-89
2021/06/11 11:56:44;;;;;;;9.67;8.67;;;;;;;;;;6148025;23;20439;-89
2021/06/11 11:59:11;;;;;;;9.47;8.57;;;30.10;73.20;;;;;;6177373;22;20443;-90
2021/06/11 12:01:40;;;;;;;7.87;7.23;;;30.70;72.20;;;;;;6186278;22;20517;-89
2021/06/11 12:04:09;;;;;;;8.47;7.77;;;31.20;69.70;;;;;;6196062;22;20486;-90
2021/06/11 12:06:39;;;;;;;9.20;8.40;;;31.50;68.80;;;;;;6220807;22;20979;-90
2021/06/11 12:09:07;;;;;;;8.63;7.93;;;31.50;68.60;;;;;;6205193;22;21038;-90
2021/06/11 12:11:35;;;;;;;8.47;7.70;;;;;;;;;;6202578;22;20511;-88
2021/06/11 12:14:03;;;;;;;9.40;8.17;;;30.60;73.20;;;;;;6201913;22;20435;-89
2021/06/11 12:16:31;;;;;;;8.60;8.00;;;;;;;;;;6189642;22;20439;-89
2021/06/11 12:18:59;;;;;;;7.37;6.77;;;;;;;;;;6206880;22;20442;-88
2021/06/11 12:21:28;;;;;;;6.20;5.70;;;;;;;;;;6208151;22;20446;-88
2021/06/11 12:23:56;;;;;;;7.43;6.40;;;37.30;56.50;;;;;;6173411;22;20450;-88
2021/06/11 12:26:24;;;;;;;6.13;5.73;;;;;;;;;;6202307;22;21014;-89
2021/06/11 12:28:52;;;;;;;6.07;5.57;;;39.40;53.60;;;;;;6207140;22;20990;-89
2021/06/11 12:31:20;;;;;;;6.33;5.80;;;;;;;;;;6188314;22;20806;-90
2021/06/11 12:33:48;;;;;;;5.07;4.67;;;;;;;;;;6205436;22;20443;-89
2021/06/11 12:36:16;;;;;;;4.57;4.20;;;;;;;;;;6219213;22;20435;-90
2021/06/11 12:38:45;;;;;;;4.27;3.87;;;40.70;48.40;;;;;;6206666;22;20439;-90
2021/06/11 12:41:15;;;;;;;4.50;4.10;;;40.10;48.80;;;;;;6204074;22;20451;-90
2021/06/11 12:46:29;;;;;;;5.17;4.67;;;40.60;49.10;;;;;;6205576;22;20443;-89
2021/06/11 12:48:57;;;;;;;4.40;4.10;;;41.20;49.20;;;;;;6189249;22;20451;-90
2021/06/11 12:51:25;;;;;;;3.90;3.70;;;;;;;;;;6218322;22;20431;-88
2021/06/11 12:53:56;;;;;;;5.23;4.73;;;41.10;47.00;;;;;;6198079;22;20459;-90